Time;durP1;ratioP1;P1;durP2;ratioP2;P2;SDS_P1;SDS_P2;PMS_P1;PMS_P2;Temp;Humidity;BMP_temperature;BMP_pressure;BME280_temperature;BME280_humidity;BME280_pressure;Samples;Min_cycle;Max_cycle;Signal;HPM_P1;HPM_P2
2023/12/26 00:01:09;;;;;;;2.42;1.20;;;;;;;9.88;100.00;100541.06;5044521;28;20056;-77
2023/12/26 00:03:34;;;;;;;5.60;1.70;;;;;;;9.88;100.00;100538.44;5038382;28;20365;-78
2023/12/26 00:06:00;;;;;;;3.95;1.75;;;;;;;9.87;100.00;100535.94;5031554;28;20037;-78
2023/12/26 00:08:25;;;;;;;4.47;1.63;;;;;;;9.86;100.00;100523.75;5041144;28;20021;-78
2023/12/26 00:10:51;;;;;;;3.03;1.60;;;;;;;9.84;100.00;100536.16;5052112;28;20029;-78
2023/12/26 00:13:16;;;;;;;3.90;1.52;;;;;;;9.82;100.00;100536.28;5051041;28;20489;-78
2023/12/26 00:15:41;;;;;;;2.75;1.65;;;;;;;9.80;100.00;100532.94;5050130;28;20449;-78
2023/12/26 00:18:07;;;;;;;3.08;1.60;;;;;;;9.79;100.00;100528.63;5049986;28;20028;-78
2023/12/26 00:20:32;;;;;;;4.55;1.70;;;;;;;9.78;100.00;100542.72;5044022;28;20431;-78
2023/12/26 00:22:58;;;;;;;3.97;1.60;;;;;;;9.76;100.00;100531.50;5034369;28;20496;-78
2023/12/26 00:25:23;;;;;;;3.90;1.80;;;;;;;9.74;100.00;100528.16;5031602;28;20025;-78
2023/12/26 00:27:48;;;;;;;3.33;1.85;;;;;;;9.72;100.00;100525.63;5035530;28;20469;-78
2023/12/26 00:30:14;;;;;;;3.28;1.60;;;;;;;9.70;100.00;100530.19;5043781;28;20021;-78
2023/12/26 00:32:39;;;;;;;5.65;1.58;;;;;;;9.69;100.00;100531.13;5047330;28;20016;-78
2023/12/26 00:35:05;;;;;;;4.20;1.73;;;;;;;9.70;100.00;100526.72;5049912;28;20489;-78
2023/12/26 00:37:31;;;;;;;4.80;1.50;;;;;;;9.68;100.00;100531.25;5049303;28;20032;-79
2023/12/26 00:40:00;;;;;;;3.83;1.40;;;;;;;9.68;100.00;100533.88;5048791;28;20175;-78
2023/12/26 00:42:26;;;;;;;3.90;1.52;;;;;;;9.65;100.00;100536.72;5048671;28;20208;-79
2023/12/26 00:44:51;;;;;;;3.30;1.45;;;;;;;9.64;100.00;100543.78;5030990;28;20052;-78
2023/12/26 00:47:16;;;;;;;3.15;1.40;;;;;;;9.64;100.00;100548.19;5032825;28;20839;-79
2023/12/26 00:49:42;;;;;;;5.10;1.50;;;;;;;9.65;100.00;100544.59;5033163;28;20056;-79
2023/12/26 00:52:07;;;;;;;3.13;1.20;;;;;;;9.62;100.00;100556.19;5031871;28;20025;-78
2023/12/26 00:54:33;;;;;;;3.50;1.17;;;;;;;9.63;100.00;100554.41;5028567;28;20029;-78
2023/12/26 00:56:58;;;;;;;3.33;1.27;;;;;;;9.62;100.00;100555.34;5029311;28;20041;-78
2023/12/26 00:59:24;;;;;;;3.83;1.40;;;;;;;9.61;100.00;100562.38;5043142;28;20037;-78
2023/12/26 01:01:49;;;;;;;2.72;1.35;;;;;;;9.60;100.00;100560.69;5048506;28;20159;-78
2023/12/26 01:04:16;;;;;;;2.30;1.13;;;;;;;9.61;100.00;100551.03;5041544;28;20033;-78
2023/12/26 01:06:42;;;;;;;2.15;1.15;;;;;;;9.60;100.00;100563.31;5036745;28;20501;-78
2023/12/26 01:09:07;;;;;;;2.08;1.10;;;;;;;9.61;100.00;100558.94;5044917;28;20100;-78
2023/12/26 01:11:33;;;;;;;1.45;1.00;;;;;;;9.61;100.00;100566.81;5047969;28;20029;-78
2023/12/26 01:13:58;;;;;;;1.65;0.90;;;;;;;9.60;100.00;100562.47;5048031;28;20021;-78
2023/12/26 01:16:27;;;;;;;3.65;1.20;;;;;;;9.60;100.00;100570.34;5047468;28;20040;-78
2023/12/26 01:18:53;;;;;;;2.78;1.23;;;;;;;9.60;100.00;100562.47;5029921;28;20029;-78
2023/12/26 01:21:18;;;;;;;1.77;1.00;;;;;;;9.60;100.00;100557.22;5034261;28;20037;-78
2023/12/26 01:23:43;;;;;;;3.00;1.20;;;;;;;9.61;100.00;100567.66;5036329;28;20025;-78
2023/12/26 01:26:09;;;;;;;2.33;1.20;;;;;;;9.61;100.00;100582.56;5041917;28;20029;-78
2023/12/26 01:28:34;;;;;;;1.40;1.30;;;;;;;9.61;100.00;100569.44;5048751;28;20094;-78
2023/12/26 01:31:00;;;;;;;1.63;1.30;;;;;;;9.60;100.00;100584.31;5048910;28;20059;-78
2023/12/26 01:33:25;;;;;;;2.03;1.75;;;;;;;9.61;100.00;100564.19;5048343;28;20052;-78
2023/12/26 01:35:51;;;;;;;1.90;1.70;;;;;;;9.60;100.00;100578.22;5047649;28;20039;-78
2023/12/26 01:38:16;;;;;;;2.97;1.90;;;;;;;9.61;100.00;100593.91;5043350;28;20727;-78
2023/12/26 01:40:42;;;;;;;2.83;2.17;;;;;;;9.61;100.00;100590.44;5041695;28;20092;-77
2023/12/26 01:43:07;;;;;;;2.40;2.20;;;;;;;9.59;100.00;100587.91;5038925;28;20070;-79
2023/12/26 01:45:33;;;;;;;2.55;2.30;;;;;;;9.58;100.00;100596.75;5030139;28;20147;-79
2023/12/26 01:48:00;;;;;;;2.67;2.47;;;;;;;9.57;100.00;100589.81;5047626;28;20481;-79
2023/12/26 01:50:26;;;;;;;3.55;2.70;;;;;;;9.58;100.00;100591.47;5047994;28;20036;-79
2023/12/26 01:52:54;;;;;;;3.10;2.80;;;;;;;9.56;100.00;100595.19;5030243;28;20022;-79
2023/12/26 01:55:20;;;;;;;3.90;2.92;;;;;;;9.55;100.00;100601.38;5028834;28;20079;-79
2023/12/26 01:57:46;;;;;;;3.63;2.80;;;;;;;9.55;100.00;100610.09;5029046;28;20037;-77
2023/12/26 02:00:12;;;;;;;2.38;2.17;;;;;;;9.57;100.00;100604.72;5034368;28;20480;-77
2023/12/26 02:02:38;;;;;;;3.58;1.92;;;;;;;9.57;100.00;100615.22;5035650;28;20664;-79
2023/12/26 02:05:04;;;;;;;2.22;2.00;;;;;;;9.59;100.00;100613.34;5027380;28;20032;-77
2023/12/26 02:07:30;;;;;;;1.77;1.58;;;;;;;9.58;100.00;100611.66;5029880;28;20030;-77
2023/12/26 02:09:55;;;;;;;2.75;1.67;;;;;;;9.58;100.00;100611.66;5049377;28;20028;-77
2023/12/26 02:12:21;;;;;;;2.42;1.42;;;;;;;9.58;100.00;100616.91;5045805;28;20041;-77
2023/12/26 02:14:47;;;;;;;2.53;1.52;;;;;;;9.58;100.00;100616.91;5028786;28;20032;-78
2023/12/26 02:17:19;;;;;;;1.58;1.30;;;;;;;9.58;100.00;100627.41;5027224;28;20083;-78
2023/12/26 02:19:46;;;;;;;2.72;1.50;;;;;;;9.58;100.00;100616.91;5037512;28;20036;-78
2023/12/26 02:22:12;;;;;;;1.52;1.40;;;;;;;9.57;100.00;100629.22;5031935;28;20033;-79
2023/12/26 02:24:42;;;;;;;1.73;1.40;;;;;;;9.59;100.00;100619.41;5027772;28;20504;-79
2023/12/26 02:27:15;;;;;;;2.72;1.60;;;;;;;9.59;100.00;100624.69;5027725;28;20029;-77
2023/12/26 02:29:41;;;;;;;;;;;;;;;9.65;100.00;100639.19;5027122;28;20128;-78
2023/12/26 02:32:09;;;;;;;3.65;1.50;;;;;;;9.60;100.00;100633.41;5039102;28;19913;-79
2023/12/26 02:34:36;;;;;;;2.42;1.80;;;;;;;9.60;100.00;100636.03;4984604;28;1239321;-79
2023/12/26 02:37:02;;;;;;;2.15;1.38;;;;;;;9.60;100.00;100638.66;5037660;28;20038;-78
2023/12/26 02:39:28;;;;;;;1.67;1.50;;;;;;;9.59;100.00;100629.94;5039780;28;20080;-78
2023/12/26 02:41:53;;;;;;;2.47;1.50;;;;;;;9.60;100.00;100620.25;5048114;28;20025;-78
2023/12/26 02:44:19;;;;;;;2.22;1.70;;;;;;;9.58;100.00;100627.41;5044415;28;20035;-79
2023/12/26 02:46:44;;;;;;;2.10;1.90;;;;;;;9.59;100.00;100639.59;5028207;28;20029;-79
2023/12/26 02:49:10;;;;;;;3.65;2.15;;;;;;;9.60;100.00;100636.03;5027213;28;20053;-79
2023/12/26 02:51:36;;;;;;;3.53;2.10;;;;;;;9.60;100.00;100630.75;5026709;28;20033;-78
2023/12/26 02:54:01;;;;;;;2.45;2.25;;;;;;;9.59;100.00;100635.19;5026588;28;20453;-77
2023/12/26 02:56:27;;;;;;;2.33;2.13;;;;;;;9.59;100.00;100629.09;5036634;28;20025;-77
2023/12/26 02:58:52;;;;;;;2.50;2.30;;;;;;;9.58;100.00;100640.56;5029595;28;20013;-77
2023/12/26 03:01:18;;;;;;;2.97;2.45;;;;;;;9.59;100.00;100639.59;5037058;28;20029;-78
2023/12/26 03:03:43;;;;;;;2.50;2.30;;;;;;;9.58;100.00;100643.19;5038351;28;20033;-78
2023/12/26 03:06:09;;;;;;;3.42;3.13;;;;;;;9.59;100.00;100650.94;5033777;28;20029;-78
2023/12/26 03:08:34;;;;;;;4.95;3.90;;;;;;;9.59;100.00;100650.09;5047317;28;20021;-78
2023/12/26 03:11:00;;;;;;;4.25;3.88;;;;;;;9.61;100.00;100661.38;5045705;28;20420;-78
2023/12/26 03:13:25;;;;;;;5.32;4.18;;;;;;;9.60;100.00;100683.31;5046778;28;20082;-78
2023/12/26 03:15:50;;;;;;;5.63;4.15;;;;;;;9.60;100.00;100672.78;5043679;28;20027;-78
2023/12/26 03:18:16;;;;;;;5.93;4.68;;;;;;;9.58;100.00;100664.19;5037282;28;20173;-79
2023/12/26 03:20:41;;;;;;;4.72;4.20;;;;;;;9.56;100.00;100671.34;5033380;28;20032;-78
2023/12/26 03:23:07;;;;;;;4.70;3.80;;;;;;;9.53;100.00;100667.16;5048829;28;20432;-79
2023/12/26 03:25:32;;;;;;;7.85;4.13;;;;;;;9.52;100.00;100686.50;5040592;28;20040;-79
2023/12/26 03:27:58;;;;;;;4.75;4.03;;;;;;;9.51;100.00;100687.44;5031368;28;20025;-79
2023/12/26 03:30:23;;;;;;;6.53;4.30;;;;;;;9.49;100.00;100685.88;5028765;28;20036;-78
2023/12/26 03:32:49;;;;;;;7.90;4.30;;;;;;;9.49;100.00;100685.88;5038396;28;20024;-79
2023/12/26 03:35:14;;;;;;;6.45;4.38;;;;;;;9.48;100.00;100686.81;5044064;28;20132;-79
2023/12/26 03:37:40;;;;;;;5.05;4.30;;;;;;;9.47;100.00;100682.53;5030192;28;20029;-79
2023/12/26 03:40:06;;;;;;;7.68;4.25;;;;;;;9.46;100.00;100691.34;5045985;28;20447;-79
2023/12/26 03:42:32;;;;;;;6.07;4.28;;;;;;;9.45;100.00;100685.25;5044762;28;20021;-78
2023/12/26 03:45:00;;;;;;;8.85;4.45;;;;;;;9.43;100.00;100690.63;5047726;28;20079;-78
2023/12/26 03:47:25;;;;;;;6.50;4.28;;;;;;;9.42;100.00;100690.72;5027971;28;20029;-79
2023/12/26 03:49:52;;;;;;;7.63;3.75;;;;;;;9.44;100.00;100694.09;5028649;28;20029;-79
2023/12/26 03:52:17;;;;;;;5.00;3.40;;;;;;;9.44;100.00;100696.72;5028763;28;20044;-79
2023/12/26 03:54:42;;;;;;;5.10;3.50;;;;;;;9.46;100.00;100692.19;5028969;28;20029;-79
2023/12/26 03:57:08;;;;;;;6.28;3.50;;;;;;;9.46;100.00;100699.22;5026558;28;20021;-79
2023/12/26 03:59:33;;;;;;;6.00;3.30;;;;;;;9.47;100.00;100703.53;5029890;28;20009;-79
2023/12/26 04:01:59;;;;;;;6.93;3.42;;;;;;;9.47;100.00;100703.53;5042437;28;20075;-79
2023/12/26 04:04:24;;;;;;;5.68;3.50;;;;;;;9.47;100.00;100714.88;5030496;28;20017;-79
2023/12/26 04:06:50;;;;;;;7.43;3.08;;;;;;;9.47;100.00;100714.03;5043711;28;20107;-80
2023/12/26 04:09:19;;;;;;;6.57;3.50;;;;;;;9.43;100.00;100724.75;5037965;28;20025;-79
2023/12/26 04:11:45;;;;;;;7.57;3.10;;;;;;;9.43;100.00;100740.50;5036140;28;20027;-80
2023/12/26 04:14:11;;;;;;;6.72;2.92;;;;;;;9.43;100.00;100756.28;5036451;28;20029;-79
2023/12/26 04:16:36;;;;;;;5.90;3.00;;;;;;;9.43;100.00;100737.88;5031615;28;20367;-78
2023/12/26 04:19:02;;;;;;;5.45;2.67;;;;;;;9.43;100.00;100740.50;5034383;28;20056;-79
2023/12/26 04:21:27;;;;;;;9.70;3.10;;;;;;;9.43;100.00;100740.50;5046388;28;20059;-79
2023/12/26 04:23:53;;;;;;;9.90;2.67;;;;;;;9.43;100.00;100745.75;5049368;28;20027;-79
2023/12/26 04:26:18;;;;;;;10.07;2.42;;;;;;;9.42;100.00;100744.09;5046629;28;20025;-79
2023/12/26 04:28:45;;;;;;;9.15;2.63;;;;;;;9.42;100.00;100749.34;5042467;28;20428;-79
2023/12/26 04:31:10;;;;;;;10.27;2.60;;;;;;;9.41;100.00;100747.66;5044425;28;20033;-79
2023/12/26 04:33:36;;;;;;;9.07;2.35;;;;;;;9.39;100.00;100754.81;5049220;28;20045;-78
2023/12/26 04:36:01;;;;;;;10.95;2.15;;;;;;;9.37;100.00;100746.22;5049635;28;20127;-78
2023/12/26 04:38:27;;;;;;;8.00;1.88;;;;;;;9.38;100.00;100750.50;5048946;28;20021;-79
2023/12/26 04:40:52;;;;;;;7.38;2.03;;;;;;;9.36;100.00;100760.28;5048637;28;20028;-78
2023/12/26 04:43:18;;;;;;;12.45;2.33;;;;;;;9.37;100.00;100758.50;5040263;28;20029;-78
2023/12/26 04:45:43;;;;;;;6.47;1.60;;;;;;;9.34;100.00;100777.94;5037143;28;20478;-79
2023/12/26 04:48:09;;;;;;;6.60;1.98;;;;;;;9.30;100.00;100776.47;5047580;28;20103;-78
2023/12/26 04:50:35;;;;;;;8.55;2.15;;;;;;;9.30;100.00;100781.72;5049480;28;20063;-78
2023/12/26 04:53:04;;;;;;;10.65;2.40;;;;;;;9.26;100.00;100774.16;5038429;28;20440;-79
2023/12/26 04:55:29;;;;;;;10.70;2.50;;;;;;;9.26;100.00;100772.38;5029629;28;20123;-78
2023/12/26 04:57:55;;;;;;;10.93;2.47;;;;;;;9.21;100.00;100785.00;5040858;28;20112;-79
2023/12/26 05:00:21;;;;;;;9.13;2.50;;;;;;;9.19;100.00;100791.25;5046032;28;20119;-79
2023/12/26 05:02:46;;;;;;;8.68;1.98;;;;;;;9.16;100.00;100804.59;5040391;28;20033;-78
2023/12/26 05:05:11;;;;;;;11.25;2.03;;;;;;;9.14;100.00;100817.81;5030952;28;20402;-78
2023/12/26 05:07:37;;;;;;;12.68;2.50;;;;;;;9.10;100.00;100816.38;5040356;28;20382;-79
2023/12/26 05:10:02;;;;;;;10.25;2.00;;;;;;;9.06;100.00;100830.63;5048884;28;20116;-79
2023/12/26 05:12:28;;;;;;;9.25;2.08;;;;;;;9.03;100.00;100830.84;5048719;28;20067;-79
2023/12/26 05:14:53;;;;;;;9.88;2.47;;;;;;;9.02;100.00;100829.16;5049189;28;20055;-79
2023/12/26 05:17:19;;;;;;;12.65;2.95;;;;;;;8.97;100.00;100832.09;5047560;28;20174;-79
2023/12/26 05:19:44;;;;;;;11.52;2.13;;;;;;;8.97;100.00;100828.66;5047333;28;20053;-79
2023/12/26 05:22:10;;;;;;;7.75;2.13;;;;;;;8.95;100.00;100826.13;5042597;28;20029;-79
2023/12/26 05:24:35;;;;;;;9.20;2.30;;;;;;;8.93;100.00;100832.41;5041799;28;20166;-79
2023/12/26 05:27:01;;;;;;;10.98;2.20;;;;;;;8.90;100.00;100840.50;5045740;28;20025;-79
2023/12/26 05:29:26;;;;;;;9.73;2.35;;;;;;;8.89;100.00;100859.81;5042823;28;20426;-79
2023/12/26 05:31:52;;;;;;;10.35;2.25;;;;;;;8.84;100.00;100865.38;5040746;28;20024;-79
2023/12/26 05:34:18;;;;;;;14.60;2.45;;;;;;;8.82;100.00;100858.53;5034690;28;20340;-80
2023/12/26 05:36:44;;;;;;;9.30;2.13;;;;;;;8.79;100.00;100876.13;5028179;28;20030;-80
2023/12/26 05:39:10;;;;;;;13.30;2.08;;;;;;;8.75;100.00;100879.91;5042264;28;20032;-79
2023/12/26 05:41:36;;;;;;;9.35;2.10;;;;;;;8.68;100.00;100876.00;5043076;28;20028;-79
2023/12/26 05:44:02;;;;;;;6.93;1.80;;;;;;;8.68;100.00;100877.78;5032381;28;20043;-79
2023/12/26 05:46:30;;;;;;;12.45;2.50;;;;;;;8.62;100.00;100876.41;5039877;28;20021;-78
2023/12/26 05:48:56;;;;;;;11.95;2.20;;;;;;;8.62;100.00;100889.53;5040822;28;20065;-79
2023/12/26 05:51:22;;;;;;;9.20;1.90;;;;;;;8.57;100.00;100896.03;5048359;28;20049;-80
2023/12/26 05:53:47;;;;;;;8.15;1.92;;;;;;;8.54;100.00;100907.56;5042136;28;20039;-80
2023/12/26 05:56:13;;;;;;;8.48;1.70;;;;;;;8.51;100.00;100920.03;5048780;28;20024;-79
2023/12/26 05:58:39;;;;;;;11.18;1.83;;;;;;;8.48;100.00;100924.53;5047346;28;20409;-79
2023/12/26 06:01:09;;;;;;;10.65;1.90;;;;;;;8.44;100.00;100936.16;5048463;28;20032;-79
2023/12/26 06:03:34;;;;;;;13.23;2.00;;;;;;;8.40;100.00;100931.16;5046988;28;20033;-79
2023/12/26 06:06:00;;;;;;;8.70;1.92;;;;;;;8.37;100.00;100939.22;5047510;28;20032;-79
2023/12/26 06:08:26;;;;;;;8.13;1.77;;;;;;;8.30;100.00;100936.13;5048126;28;20025;-79
2023/12/26 06:10:52;;;;;;;6.75;1.85;;;;;;;8.28;100.00;100937.16;5048128;28;20039;-80
2023/12/26 06:13:17;;;;;;;8.25;2.08;;;;;;;8.24;100.00;100925.19;5047613;28;20452;-80
2023/12/26 06:15:43;;;;;;;7.13;1.88;;;;;;;8.17;100.00;100946.56;5046816;28;20075;-80
2023/12/26 06:18:08;;;;;;;7.80;1.80;;;;;;;8.11;100.00;100944.31;5049195;28;20025;-80
2023/12/26 06:20:33;;;;;;;7.63;1.70;;;;;;;8.07;100.00;100955.94;5046884;28;20028;-78
2023/12/26 06:22:59;;;;;;;6.97;1.70;;;;;;;8.06;100.00;100969.13;5046030;28;20497;-79
2023/12/26 06:25:24;;;;;;;9.13;2.35;;;;;;;7.99;100.00;100963.38;5049420;28;20354;-79
2023/12/26 06:27:50;;;;;;;9.95;2.47;;;;;;;7.92;100.00;100987.44;5049166;28;20021;-79
2023/12/26 06:30:18;;;;;;;7.82;2.20;;;;;;;7.87;100.00;101000.81;5048821;28;20021;-78
2023/12/26 06:32:44;;;;;;;9.48;2.20;;;;;;;7.83;100.00;101009.81;5046849;28;20028;-78
2023/12/26 06:35:09;;;;;;;10.90;2.20;;;;;;;7.81;100.00;101012.50;5047272;28;20408;-79
2023/12/26 06:37:34;;;;;;;11.65;2.30;;;;;;;7.79;100.00;100997.81;5048109;28;20056;-79
2023/12/26 06:40:00;;;;;;;9.90;2.10;;;;;;;7.77;100.00;101015.41;5035786;28;20761;-79
2023/12/26 06:42:25;;;;;;;10.80;2.15;;;;;;;7.74;100.00;101015.59;5042302;28;20113;-79
2023/12/26 06:44:51;;;;;;;10.52;2.13;;;;;;;7.72;100.00;101009.59;5048107;28;20029;-79
2023/12/26 06:47:17;;;;;;;10.63;2.20;;;;;;;7.70;100.00;100998.38;5034117;28;20036;-79
2023/12/26 06:49:46;;;;;;;9.32;2.20;;;;;;;7.69;100.00;101008.00;5043548;28;20032;-79
2023/12/26 06:52:15;;;;;;;12.27;2.30;;;;;;;7.63;100.00;101007.53;5055596;28;20037;-79
2023/12/26 06:54:41;;;;;;;11.43;2.53;;;;;;;7.60;100.00;101007.69;5037768;28;20045;-79
2023/12/26 06:57:08;;;;;;;7.05;1.77;;;;;;;7.56;100.00;101007.03;5042520;28;20021;-79
2023/12/26 06:59:34;;;;;;;9.65;1.95;;;;;;;7.54;100.00;101014.97;5044402;28;20029;-79
2023/12/26 07:02:00;;;;;;;15.10;2.92;;;;;;;7.54;100.00;101004.50;5040139;28;20547;-80
2023/12/26 07:04:26;;;;;;;8.93;2.40;;;;;;;7.53;100.00;101015.91;5042703;28;20059;-78
2023/12/26 07:06:51;;;;;;;12.10;2.33;;;;;;;7.51;100.00;101017.78;5048397;28;20393;-78
2023/12/26 07:09:17;;;;;;;8.23;2.17;;;;;;;7.49;100.00;101037.97;5038467;28;20032;-79
2023/12/26 07:11:42;;;;;;;7.95;2.00;;;;;;;7.48;100.00;101041.53;5048233;28;20115;-79
2023/12/26 07:14:08;;;;;;;12.50;2.40;;;;;;;7.45;100.00;101051.34;5046479;28;20017;-79
2023/12/26 07:16:35;;;;;;;9.43;2.13;;;;;;;7.42;100.00;101062.81;5058649;28;20033;-78
2023/12/26 07:19:01;;;;;;;10.77;2.13;;;;;;;7.39;100.00;101065.63;5046896;28;20032;-78
2023/12/26 07:21:26;;;;;;;13.05;2.63;;;;;;;7.38;100.00;101066.56;5048471;28;20017;-79
2023/12/26 07:23:52;;;;;;;9.07;2.55;;;;;;;7.34;100.00;101067.66;5037872;28;20561;-78
2023/12/26 07:26:17;;;;;;;9.70;2.00;;;;;;;7.33;100.00;101079.06;5028202;28;20042;-77
2023/12/26 07:28:42;;;;;;;9.48;2.10;;;;;;;7.34;100.00;101093.00;5028876;28;20646;-78
2023/12/26 07:31:08;;;;;;;14.30;2.67;;;;;;;7.34;100.00;101090.38;5028233;28;20025;-78
2023/12/26 07:33:33;;;;;;;8.68;2.03;;;;;;;7.38;100.00;101087.50;5042256;28;20051;-79
2023/12/26 07:36:00;;;;;;;11.63;2.78;;;;;;;7.37;100.00;101091.03;5047106;28;20131;-79
2023/12/26 07:38:25;;;;;;;9.70;2.30;;;;;;;7.39;100.00;101083.09;5043998;28;20466;-79
2023/12/26 07:40:51;;;;;;;11.80;2.42;;;;;;;7.40;100.00;101090.88;5042448;28;20074;-79
2023/12/26 07:43:16;;;;;;;9.95;2.30;;;;;;;7.38;100.00;101097.13;5048798;28;20033;-79
2023/12/26 07:45:43;;;;;;;10.18;2.40;;;;;;;7.39;100.00;101106.66;5051768;28;20028;-78
2023/12/26 07:48:10;;;;;;;8.63;2.20;;;;;;;7.40;100.00;101109.19;5051316;28;20021;-78
2023/12/26 07:50:36;;;;;;;10.20;2.38;;;;;;;7.40;100.00;101116.19;5049240;28;20052;-78
2023/12/26 07:53:01;;;;;;;8.75;2.08;;;;;;;7.36;100.00;101115.53;5048936;28;20326;-79
2023/12/26 07:55:29;;;;;;;10.40;2.70;;;;;;;7.34;100.00;101117.38;5049701;28;20538;-78
2023/12/26 07:57:54;;;;;;;9.50;2.50;;;;;;;7.33;100.00;101131.41;5050278;28;20075;-79
2023/12/26 08:00:20;;;;;;;9.38;2.40;;;;;;;7.32;100.00;101134.94;5041430;28;20037;-78
2023/12/26 08:02:45;;;;;;;12.80;2.47;;;;;;;7.29;100.00;101140.38;5041221;28;20030;-78
2023/12/26 08:05:11;;;;;;;9.27;2.50;;;;;;;7.27;100.00;101144.84;5038570;28;20627;-80
2023/12/26 08:07:37;;;;;;;14.50;2.72;;;;;;;7.26;100.00;101156.22;5048424;28;20537;-78
2023/12/26 08:10:02;;;;;;;9.27;2.10;;;;;;;7.27;100.00;101155.31;5048424;28;20060;-78
2023/12/26 08:12:28;;;;;;;9.82;2.17;;;;;;;7.25;100.00;101154.56;5050717;28;20052;-79
2023/12/26 08:14:53;;;;;;;9.15;2.40;;;;;;;7.25;100.00;101153.72;5050423;28;20025;-79
2023/12/26 08:17:19;;;;;;;12.98;2.75;;;;;;;7.24;100.00;101155.47;5049245;28;20032;-78
2023/12/26 08:19:44;;;;;;;13.52;2.60;;;;;;;7.22;100.00;101159.94;5051586;28;20021;-80
2023/12/26 08:22:10;;;;;;;12.30;2.72;;;;;;;7.20;100.00;101164.41;5051146;28;20095;-79
2023/12/26 08:24:35;;;;;;;13.55;2.67;;;;;;;7.22;100.00;101159.94;5050200;28;20400;-79
2023/12/26 08:27:00;;;;;;;12.85;2.58;;;;;;;7.20;100.00;101161.78;5050355;28;20147;-79
2023/12/26 08:29:26;;;;;;;11.98;2.45;;;;;;;7.17;100.00;101168.03;5051174;28;20381;-80
2023/12/26 08:31:51;;;;;;;12.15;2.65;;;;;;;7.18;100.00;101174.09;5051868;28;20055;-79
2023/12/26 08:34:17;;;;;;;10.30;2.53;;;;;;;7.19;100.00;101186.25;5047363;28;20139;-80
2023/12/26 08:36:43;;;;;;;10.45;2.75;;;;;;;7.17;100.00;101188.13;5050111;28;20036;-80
2023/12/26 08:39:08;;;;;;;11.02;2.60;;;;;;;7.17;100.00;101193.34;5051350;28;20055;-80
2023/12/26 08:41:33;;;;;;;10.07;2.55;;;;;;;7.17;100.00;101201.19;5050577;28;20391;-79
2023/12/26 08:43:59;;;;;;;9.98;2.35;;;;;;;7.16;100.00;101208.22;5050989;28;20032;-79
2023/12/26 08:46:24;;;;;;;11.70;2.63;;;;;;;7.18;100.00;101210.75;5051664;28;20025;-80
2023/12/26 08:48:50;;;;;;;15.05;3.17;;;;;;;7.16;100.00;101215.22;5051212;28;20025;-80
2023/12/26 08:51:16;;;;;;;9.77;2.72;;;;;;;7.17;100.00;101232.59;5037496;28;20033;-79
2023/12/26 08:53:41;;;;;;;12.70;2.92;;;;;;;7.19;100.00;101238.59;5030253;28;20125;-79
2023/12/26 08:56:07;;;;;;;16.13;3.20;;;;;;;7.17;100.00;101243.06;5029814;28;20032;-79
2023/12/26 08:58:32;;;;;;;17.98;3.38;;;;;;;7.19;100.00;101243.84;5029928;28;20112;-79
2023/12/26 09:01:01;;;;;;;14.27;3.05;;;;;;;7.22;100.00;101239.31;5030694;28;20025;-80
2023/12/26 09:03:27;;;;;;;15.18;2.97;;;;;;;7.29;100.00;101233.75;5036188;28;20433;-81
2023/12/26 09:05:53;;;;;;;13.82;3.25;;;;;;;7.34;100.00;101234.31;5047585;28;20485;-79
2023/12/26 09:08:18;;;;;;;12.35;2.92;;;;;;;7.41;100.00;101239.16;5039532;28;20064;-79
2023/12/26 09:10:44;;;;;;;13.02;2.85;;;;;;;7.53;100.00;101253.31;5028460;28;20029;-79
2023/12/26 09:13:11;;;;;;;13.65;3.50;;;;;;;7.65;100.00;101262.31;5030274;28;20025;-80
2023/12/26 09:15:36;;;;;;;16.85;3.38;;;;;;;7.78;100.00;101271.16;5040462;28;20033;-80
2023/12/26 09:18:02;;;;;;;11.18;2.53;;;;;;;7.82;100.00;101270.06;5047707;28;20040;-79
2023/12/26 09:20:28;;;;;;;16.73;3.63;;;;;;;7.89;100.00;101276.66;5049580;28;20060;-79
2023/12/26 09:22:53;;;;;;;13.63;3.03;;;;;;;7.91;100.00;101271.31;5047195;28;20110;-79
2023/12/26 09:25:18;;;;;;;17.00;3.17;;;;;;;7.91;100.00;101280.03;5046232;28;20032;-79
2023/12/26 09:27:44;;;;;;;15.43;2.78;;;;;;;7.89;100.00;101287.13;5043296;28;20400;-79
2023/12/26 09:30:10;;;;;;;14.02;3.10;;;;;;;7.85;100.00;101281.22;5029529;28;20021;-80
2023/12/26 09:32:35;;;;;;;14.18;2.85;;;;;;;7.81;100.00;101289.34;5042873;28;20166;-79
2023/12/26 09:35:01;;;;;;;11.88;3.03;;;;;;;7.78;100.00;101299.97;5037759;28;20140;-79
2023/12/26 09:37:26;;;;;;;14.90;3.15;;;;;;;7.75;100.00;101302.78;5035547;28;20029;-80
2023/12/26 09:39:55;;;;;;;14.07;3.17;;;;;;;7.75;100.00;101314.09;5061834;28;20025;-80
2023/12/26 09:42:22;;;;;;;14.23;3.20;;;;;;;7.71;100.00;101315.19;5048156;28;20500;-79
2023/12/26 09:44:49;;;;;;;16.52;3.35;;;;;;;7.70;100.00;101328.38;5038036;28;20098;-79
2023/12/26 09:47:16;;;;;;;16.42;3.33;;;;;;;7.66;100.00;101332.94;5035148;28;20025;-79
2023/12/26 09:49:43;;;;;;;16.00;3.28;;;;;;;7.62;100.00;101341.03;5044737;28;20491;-80
2023/12/26 09:52:09;;;;;;;15.60;3.28;;;;;;;7.59;100.00;101347.25;5034690;28;20033;-80
2023/12/26 09:54:37;;;;;;;15.32;3.45;;;;;;;7.55;100.00;101345.72;5031858;28;20040;-80
2023/12/26 09:57:03;;;;;;;16.80;3.35;;;;;;;7.48;100.00;101353.06;5038591;28;20396;-80
2023/12/26 09:59:29;;;;;;;18.52;3.75;;;;;;;7.46;100.00;101356.69;5049553;28;20103;-79
2023/12/26 10:01:55;;;;;;;18.90;3.75;;;;;;;7.42;100.00;101361.25;5048192;28;20031;-80
2023/12/26 10:04:20;;;;;;;16.25;3.20;;;;;;;7.42;100.00;101371.72;5049470;28;20029;-80
2023/12/26 10:06:46;;;;;;;17.55;3.35;;;;;;;7.45;100.00;101374.19;5047747;28;20079;-79
2023/12/26 10:09:11;;;;;;;15.75;3.22;;;;;;;7.47;100.00;101380.19;5046297;28;20029;-80
2023/12/26 10:11:43;;;;;;;16.67;3.30;;;;;;;7.51;100.00;101381.72;5044343;28;20098;-80
2023/12/26 10:14:09;;;;;;;23.88;3.83;;;;;;;7.55;100.00;101379.78;5043807;28;20025;-79
2023/12/26 10:16:34;;;;;;;14.77;3.08;;;;;;;7.60;100.00;101379.53;5035799;28;20025;-79
2023/12/26 10:19:00;;;;;;;15.88;3.20;;;;;;;7.66;100.00;101379.22;5037759;28;20029;-80
2023/12/26 10:21:27;;;;;;;16.17;3.80;;;;;;;7.71;100.00;101388.53;5028787;28;20040;-79
2023/12/26 10:23:55;;;;;;;20.05;3.85;;;;;;;7.75;100.00;101390.06;5030858;28;20060;-79
2023/12/26 10:26:20;;;;;;;11.95;3.45;;;;;;;7.83;100.00;101397.50;5038438;28;20515;-79
2023/12/26 10:28:46;;;;;;;17.17;3.65;;;;;;;7.88;100.00;101398.09;5047051;28;20025;-77
2023/12/26 10:31:18;;;;;;;17.05;3.35;;;;;;;7.93;100.00;101403.91;5039963;28;20048;-77
2023/12/26 10:33:44;;;;;;;24.25;4.15;;;;;;;7.97;100.00;101409.84;5049143;28;20124;-78
2023/12/26 10:36:12;;;;;;;15.13;3.58;;;;;;;8.05;100.00;101410.28;5047122;28;20119;-78
2023/12/26 10:38:44;;;;;;;15.07;3.50;;;;;;;8.06;100.00;101406.75;5035763;28;20021;-78
2023/12/26 10:41:25;;;;;;;15.88;3.38;;;;;;;8.11;100.00;101413.44;5039820;28;20041;-77
2023/12/26 10:43:56;;;;;;;13.48;3.17;;;;;;;8.13;100.00;101406.31;5028570;28;20092;-77
2023/12/26 10:46:22;;;;;;;18.13;3.85;;;;;;;8.18;100.00;101395.59;5029454;28;20025;-78
2023/12/26 10:48:52;;;;;;;13.50;3.03;;;;;;;8.22;100.00;101406.75;5042416;28;20035;-78
2023/12/26 10:51:23;;;;;;;12.52;3.10;;;;;;;8.23;100.00;101392.69;5032303;28;20029;-78
2023/12/26 10:54:13;;;;;;;15.93;3.13;;;;;;;8.28;100.00;101388.03;5041422;28;20106;-80
2023/12/26 10:56:40;;;;;;;13.50;3.15;;;;;;;8.32;100.00;101392.19;5048407;28;20396;-79
2023/12/26 10:59:06;;;;;;;16.67;3.92;;;;;;;8.35;100.00;101394.66;5047556;28;20481;-79
2023/12/26 13:53:01;;;;;;;10.90;2.97;;;;;;;8.70;100.00;101571.06;5044072;28;20139;-80
2023/12/26 13:55:26;;;;;;;12.57;3.35;;;;;;;8.67;100.00;101576.47;5048599;28;20112;-79
2023/12/26 13:57:52;;;;;;;13.02;3.03;;;;;;;8.63;100.00;101583.69;5047126;28;20086;-79
2023/12/26 14:00:17;;;;;;;12.80;3.30;;;;;;;8.63;100.00;101578.44;5037573;28;20564;-80
2023/12/26 14:02:43;;;;;;;16.15;3.33;;;;;;;8.62;100.00;101589.84;5043950;28;20545;-79
2023/12/26 14:05:08;;;;;;;15.88;3.70;;;;;;;8.61;100.00;101582.91;5044941;28;20074;-80
2023/12/26 14:07:33;;;;;;;15.60;3.17;;;;;;;8.59;100.00;101587.41;5047693;28;20100;-80